Time;durP1;ratioP1;P1;durP2;ratioP2;P2;SDS_P1;SDS_P2;PMS_P1;PMS_P2;Temp;Humidity;BMP_temperature;BMP_pressure;BME280_temperature;BME280_humidity;BME280_pressure;Samples;Min_cycle;Max_cycle;Signal;HPM_P1;HPM_P2
2022/07/29 00:03:52;;;;;;;1.62;0.50;;;20.50;99.20;;;;;;6691313;88;20226;-79
2022/07/29 00:13:53;;;;;;;1.05;0.50;;;20.60;99.90;;;;;;6691539;88;20203;-79
2022/07/29 00:23:53;;;;;;;1.15;0.57;;;20.40;99.90;;;;;;6687873;88;20742;-79
2022/07/29 00:33:54;;;;;;;1.37;0.60;;;20.20;99.90;;;;;;6691995;88;20198;-79
2022/07/29 00:43:54;;;;;;;1.10;0.47;;;20.40;99.90;;;;;;6692019;88;21026;-79
2022/07/29 00:53:56;;;;;;;1.00;0.50;;;20.30;99.90;;;;;;6691342;88;20194;-79
2022/07/29 01:03:56;;;;;;;1.52;0.40;;;20.00;99.90;;;;;;6690978;88;20398;-80
2022/07/29 01:13:57;;;;;;;0.93;0.45;;;19.60;99.90;;;;;;6688627;88;20304;-80
2022/07/29 01:24:24;;;;;;;1.52;0.68;;;19.60;99.90;;;;;;6690078;88;20183;-79
2022/07/29 01:34:50;;;;;;;1.00;0.50;;;19.40;99.90;;;;;;6683144;88;20631;-79
2022/07/29 01:44:54;;;;;;;0.80;0.40;;;19.40;99.90;;;;;;6688979;88;20212;-79
2022/07/29 01:55:04;;;;;;;0.50;0.40;;;19.40;99.90;;;;;;6687094;88;20241;-79
2022/07/29 02:05:07;;;;;;;1.00;0.50;;;19.10;99.90;;;;;;6694790;88;20203;-80
2022/07/29 02:15:10;;;;;;;1.08;0.55;;;19.30;99.90;;;;;;6692906;89;20539;-79
2022/07/29 02:25:12;;;;;;;0.90;0.47;;;19.10;99.90;;;;;;6690204;89;20619;-79
2022/07/29 02:35:14;;;;;;;1.60;0.70;;;18.70;99.90;;;;;;6692574;88;20205;-79
2022/07/29 02:45:15;;;;;;;0.88;0.47;;;18.40;99.90;;;;;;6699616;88;20199;-79
2022/07/29 02:55:28;;;;;;;2.15;0.73;;;18.10;99.90;;;;;;6709072;88;20226;-79
2022/07/29 03:05:30;;;;;;;0.62;0.35;;;18.30;99.90;;;;;;6703031;88;20221;-79
2022/07/29 03:15:31;;;;;;;0.80;0.40;;;18.50;99.90;;;;;;6693150;88;20670;-79
2022/07/29 03:25:32;;;;;;;1.05;0.50;;;18.30;99.90;;;;;;6687675;88;20227;-78
2022/07/29 03:35:33;;;;;;;0.67;0.40;;;17.90;99.90;;;;;;6690058;88;20202;-80
2022/07/29 03:45:34;;;;;;;1.20;0.55;;;17.70;99.90;;;;;;6691358;88;20643;-79
2022/07/29 03:55:43;;;;;;;1.23;0.70;;;17.60;99.90;;;;;;6688078;88;20198;-80
2022/07/29 04:05:43;;;;;;;0.85;0.50;;;17.70;99.90;;;;;;6691513;88;20679;-78
2022/07/29 04:15:44;;;;;;;1.23;0.40;;;17.60;99.90;;;;;;6691528;88;20276;-79
2022/07/29 04:25:44;;;;;;;1.02;0.43;;;17.50;99.90;;;;;;6691311;88;20202;-79
2022/07/29 04:35:45;;;;;;;1.00;0.60;;;17.70;99.90;;;;;;6704670;77;20831;-77
2022/07/29 04:45:45;;;;;;;1.00;0.50;;;17.80;99.90;;;;;;6746681;88;20211;-77
2022/07/29 04:55:46;;;;;;;1.77;0.50;;;17.80;99.90;;;;;;6735762;88;20231;-77
2022/07/29 05:05:46;;;;;;;1.07;0.57;;;17.90;99.90;;;;;;6727583;88;20192;-77
2022/07/29 05:15:47;;;;;;;0.68;0.45;;;17.80;99.90;;;;;;6724479;88;20531;-77
2022/07/29 05:25:47;;;;;;;1.00;0.43;;;18.20;99.90;;;;;;6729678;88;20232;-78
2022/07/29 05:35:48;;;;;;;1.10;0.50;;;18.40;99.90;;;;;;6733799;88;20743;-77
2022/07/29 05:45:48;;;;;;;1.35;0.55;;;18.70;99.90;;;;;;6735810;88;20240;-78
2022/07/29 05:55:50;;;;;;;0.85;0.45;;;18.70;99.90;;;;;;6732778;88;20320;-77
2022/07/29 06:05:50;;;;;;;1.10;0.50;;;18.80;99.90;;;;;;6727785;88;20312;-77
2022/07/29 06:15:51;;;;;;;1.37;0.77;;;19.10;99.90;;;;;;6730446;88;20197;-77
2022/07/29 06:25:51;;;;;;;0.90;0.60;;;19.10;99.90;;;;;;6731469;88;20715;-77
2022/07/29 06:35:52;;;;;;;1.33;0.68;;;19.10;99.90;;;;;;6722078;88;20970;-77
2022/07/29 06:45:52;;;;;;;1.12;0.57;;;19.60;99.90;;;;;;6726160;88;20192;-77
2022/07/29 06:55:53;;;;;;;1.10;0.43;;;20.20;99.90;;;;;;6729455;88;20182;-77
2022/07/29 07:05:54;;;;;;;1.62;0.60;;;20.80;99.90;;;;;;6728378;88;20190;-77
2022/07/29 07:15:55;;;;;;;1.37;0.70;;;21.20;99.90;;;;;;6733368;88;20192;-77
2022/07/29 07:25:55;;;;;;;2.92;0.65;;;21.80;99.90;;;;;;6742760;88;20192;-78
2022/07/29 07:35:56;;;;;;;0.98;0.52;;;22.90;99.20;;;;;;6733531;88;20587;-78
2022/07/29 07:45:57;;;;;;;0.98;0.40;;;22.90;97.90;;;;;;6725175;88;20274;-78
2022/07/29 07:55:57;;;;;;;1.30;0.80;;;22.90;97.20;;;;;;6732401;88;20190;-79
2022/07/29 08:05:58;;;;;;;0.88;0.52;;;23.60;96.00;;;;;;6726048;88;20190;-79
2022/07/29 08:16:11;;;;;;;0.80;0.50;;;24.90;94.30;;;;;;6730423;88;20216;-77
2022/07/29 08:26:13;;;;;;;1.30;0.80;;;25.80;91.50;;;;;;6727776;88;20186;-77
2022/07/29 08:36:13;;;;;;;1.08;0.65;;;26.30;89.50;;;;;;6726219;88;20200;-78
2022/07/29 08:46:14;;;;;;;1.30;0.65;;;26.10;90.30;;;;;;6728175;88;20203;-77
2022/07/29 08:56:17;;;;;;;1.50;0.82;;;26.50;88.60;;;;;;6724497;88;20308;-78
2022/07/29 09:06:20;;;;;;;0.88;0.50;;;26.80;87.30;;;;;;6731085;88;20239;-77
2022/07/29 09:16:21;;;;;;;1.40;0.80;;;28.40;85.10;;;;;;6732055;88;20333;-78
2022/07/29 09:26:29;;;;;;;1.00;0.60;;;29.30;80.60;;;;;;6730412;88;20622;-78
2022/07/29 09:36:29;;;;;;;0.88;0.60;;;29.50;78.50;;;;;;6726195;88;20239;-76
2022/07/29 09:46:30;;;;;;;1.10;0.50;;;29.70;79.60;;;;;;6740780;88;20226;-78
2022/07/29 09:56:40;;;;;;;0.90;0.60;;;30.60;78.00;;;;;;6734349;88;20344;-78
2022/07/29 10:07:02;;;;;;;0.98;0.65;;;30.60;76.40;;;;;;6736040;88;20618;-78
2022/07/29 10:17:05;;;;;;;1.10;0.70;;;30.50;76.70;;;;;;6735078;88;20224;-78
2022/07/29 10:27:08;;;;;;;1.45;0.70;;;30.50;78.60;;;;;;6735158;88;20277;-78
2022/07/29 10:37:41;;;;;;;1.17;0.62;;;30.70;77.60;;;;;;6726477;88;20621;-79
2022/07/29 10:47:41;;;;;;;2.10;0.75;;;30.90;78.00;;;;;;6711665;88;20316;-78
2022/07/29 10:58:13;;;;;;;0.93;0.60;;;31.50;76.20;;;;;;6714112;88;20198;-78
2022/07/29 11:08:13;;;;;;;1.20;0.70;;;31.60;75.10;;;;;;6720803;88;20240;-78
2022/07/29 11:18:14;;;;;;;1.50;0.80;;;31.70;74.90;;;;;;6721446;88;20202;-79
2022/07/29 11:28:20;;;;;;;1.85;0.75;;;31.20;74.60;;;;;;6715095;88;20241;-79
2022/07/29 11:38:27;;;;;;;1.30;0.70;;;31.50;74.90;;;;;;6723990;88;20211;-80
2022/07/29 11:48:27;;;;;;;1.48;0.90;;;32.00;74.20;;;;;;6715456;88;20649;-79
2022/07/29 11:58:28;;;;;;;;;;;33.40;72.60;;;;;;6726963;88;20274;-78
2022/07/29 12:08:29;;;;;;;1.27;0.97;;;33.30;71.30;;;;;;6721834;88;20066;-79
2022/07/29 12:18:30;;;;;;;1.52;0.68;;;32.00;71.70;;;;;;6715021;88;20672;-78
2022/07/29 12:28:40;;;;;;;1.48;0.90;;;30.10;72.10;;;;;;6716283;88;20333;-79
2022/07/29 12:38:41;;;;;;;1.08;0.80;;;29.80;72.20;;;;;;6722438;88;20207;-78
2022/07/29 12:48:43;;;;;;;1.58;0.75;;;31.50;72.00;;;;;;6738075;88;20185;-79
2022/07/29 12:58:44;;;;;;;0.93;0.60;;;31.60;70.60;;;;;;6733106;88;20722;-76
2022/07/29 13:08:59;;;;;;;1.33;0.80;;;30.30;71.40;;;;;;6720734;88;20361;-78
2022/07/29 13:19:18;;;;;;;1.80;0.82;;;30.50;72.40;;;;;;6721638;88;20199;-78
2022/07/29 13:29:18;;;;;;;1.40;0.90;;;30.30;72.30;;;;;;6725352;88;20207;-78
2022/07/29 13:39:19;;;;;;;0.98;0.70;;;30.30;72.50;;;;;;6731061;88;20659;-78
2022/07/29 13:49:19;;;;;;;1.10;0.70;;;29.80;71.50;;;;;;6727508;88;20197;-78
2022/07/29 13:59:20;;;;;;;1.20;0.70;;;29.80;72.40;;;;;;6728447;88;20654;-76
2022/07/29 14:09:20;;;;;;;1.10;0.80;;;30.90;72.60;;;;;;6736531;88;20329;-78
2022/07/29 14:19:21;;;;;;;1.57;0.90;;;31.60;70.80;;;;;;6734341;88;20327;-78
2022/07/29 14:29:22;;;;;;;1.10;0.60;;;31.30;69.70;;;;;;6733625;88;20184;-78
2022/07/29 14:39:23;;;;;;;1.60;1.03;;;31.70;69.90;;;;;;6730113;88;20241;-78
2022/07/29 14:49:23;;;;;;;1.33;0.70;;;31.50;68.50;;;;;;6729210;88;20621;-78
2022/07/29 14:59:24;;;;;;;1.20;0.70;;;30.80;70.20;;;;;;6737752;88;20216;-78
2022/07/29 15:09:25;;;;;;;2.30;1.13;;;30.50;71.50;;;;;;6732973;88;20247;-77
2022/07/29 15:19:25;;;;;;;1.52;0.90;;;29.90;71.90;;;;;;6735280;88;20224;-78
2022/07/29 15:29:26;;;;;;;1.30;0.90;;;29.70;74.10;;;;;;6730956;88;20360;-78
2022/07/29 15:39:26;;;;;;;2.55;1.10;;;30.00;73.50;;;;;;6720527;88;20326;-77
2022/07/29 15:49:30;;;;;;;2.05;0.88;;;28.80;74.60;;;;;;6730362;88;20205;-77
2022/07/29 15:59:32;;;;;;;1.75;0.82;;;28.20;74.20;;;;;;6731887;88;20357;-77
2022/07/29 16:09:33;;;;;;;1.20;0.80;;;28.00;75.00;;;;;;6727701;88;20262;-77
2022/07/29 16:19:33;;;;;;;1.25;0.75;;;28.10;75.30;;;;;;6731450;88;20214;-77
2022/07/29 16:29:35;;;;;;;1.20;0.80;;;28.90;73.00;;;;;;6738399;88;20212;-76
2022/07/29 16:39:36;;;;;;;1.10;0.80;;;28.20;73.50;;;;;;6706456;77;20203;-80
2022/07/29 16:49:37;;;;;;;2.60;0.80;;;27.90;73.90;;;;;;6680815;88;20210;-81
2022/07/29 16:59:37;;;;;;;1.00;0.60;;;27.10;75.00;;;;;;6674695;88;20200;-81
2022/07/29 17:09:38;;;;;;;1.83;0.70;;;26.60;75.50;;;;;;6681360;89;20236;-80
2022/07/29 17:19:39;;;;;;;1.15;0.80;;;26.30;74.90;;;;;;6678968;89;20396;-80
2022/07/29 17:29:39;;;;;;;1.30;0.65;;;25.70;75.90;;;;;;6681642;89;20216;-80
2022/07/29 17:39:41;;;;;;;0.93;0.60;;;26.20;75.30;;;;;;6680829;89;20695;-80
2022/07/29 17:49:41;;;;;;;1.30;0.60;;;27.70;72.50;;;;;;6674200;88;20530;-80
2022/07/29 17:59:42;;;;;;;0.85;0.52;;;27.80;70.50;;;;;;6675144;89;20201;-81
2022/07/29 18:09:42;;;;;;;1.15;0.65;;;27.60;70.10;;;;;;6672804;89;20202;-81
2022/07/29 18:19:43;;;;;;;2.00;0.70;;;26.90;71.90;;;;;;6672237;89;20204;-79
2022/07/29 18:29:43;;;;;;;1.37;0.70;;;26.50;73.10;;;;;;6688288;89;20591;-80
2022/07/29 18:39:44;;;;;;;1.50;0.85;;;26.00;75.10;;;;;;6677787;89;20289;-80
2022/07/29 18:49:45;;;;;;;1.70;0.60;;;25.60;76.50;;;;;;6679477;89;20184;-80
2022/07/29 18:59:45;;;;;;;1.83;0.75;;;25.30;77.80;;;;;;6676034;89;21076;-80
2022/07/29 19:09:46;;;;;;;1.58;0.80;;;25.00;78.60;;;;;;6676521;88;20190;-81
2022/07/29 19:19:47;;;;;;;1.58;0.80;;;24.60;80.20;;;;;;6672348;89;20195;-81
2022/07/29 19:29:47;;;;;;;1.50;0.90;;;24.30;81.40;;;;;;6675036;89;20285;-80
2022/07/29 19:39:48;;;;;;;1.65;1.02;;;24.20;82.40;;;;;;6685375;89;20208;-81
2022/07/29 19:49:48;;;;;;;1.02;0.60;;;23.90;83.20;;;;;;6680894;89;20228;-81
2022/07/29 19:59:49;;;;;;;1.70;0.90;;;23.70;83.80;;;;;;6680407;88;20199;-79
2022/07/29 20:09:53;;;;;;;2.92;0.80;;;23.50;84.70;;;;;;6676347;88;20316;-80
2022/07/29 20:19:55;;;;;;;2.30;0.95;;;23.40;85.90;;;;;;6677803;89;20313;-81
2022/07/29 20:29:56;;;;;;;1.45;0.80;;;23.30;86.70;;;;;;6673879;89;20204;-78
2022/07/29 20:39:56;;;;;;;1.40;0.80;;;22.90;87.60;;;;;;6650896;89;20753;-79
2022/07/29 20:49:58;;;;;;;2.78;1.37;;;22.60;87.60;;;;;;6651790;89;20233;-78
2022/07/29 20:59:58;;;;;;;2.35;1.33;;;22.30;88.50;;;;;;6655506;89;20344;-78
2022/07/29 21:09:59;;;;;;;1.30;0.80;;;22.00;90.00;;;;;;6650229;89;20285;-78
2022/07/29 21:20:04;;;;;;;3.47;0.80;;;21.80;91.00;;;;;;6649067;89;20233;-80
2022/07/29 21:30:06;;;;;;;1.90;0.90;;;21.80;92.00;;;;;;6648336;89;20187;-77
2022/07/29 21:40:08;;;;;;;1.75;0.80;;;21.70;92.90;;;;;;6648573;89;20191;-79
2022/07/29 21:50:08;;;;;;;1.00;0.62;;;21.60;93.60;;;;;;6657750;89;20187;-79
2022/07/29 22:00:14;;;;;;;1.67;0.90;;;21.50;94.60;;;;;;6648516;89;20346;-79
2022/07/29 22:10:15;;;;;;;1.85;1.08;;;21.50;96.10;;;;;;6648373;89;20212;-79
2022/07/29 22:20:16;;;;;;;1.30;0.80;;;21.50;96.50;;;;;;6648660;89;20203;-78
2022/07/29 22:30:16;;;;;;;1.57;0.90;;;21.40;97.30;;;;;;6648837;89;20387;-78
2022/07/29 22:40:17;;;;;;;1.40;0.90;;;21.40;97.80;;;;;;6693477;77;20557;-77
2022/07/29 22:50:17;;;;;;;1.40;0.75;;;21.50;98.70;;;;;;6728423;88;20338;-77
2022/07/29 23:00:18;;;;;;;1.87;1.00;;;21.50;99.60;;;;;;6722659;88;20342;-78
2022/07/29 23:10:19;;;;;;;1.17;0.90;;;21.50;99.90;;;;;;6739165;88;20268;-77
2022/07/29 23:20:19;;;;;;;1.45;0.90;;;21.30;99.90;;;;;;6726652;88;20177;-78
2022/07/29 23:30:20;;;;;;;1.67;0.80;;;21.50;99.90;;;;;;6729860;88;20280;-78
2022/07/29 23:40:20;;;;;;;2.03;1.10;;;21.10;99.90;;;;;;6722627;88;20210;-77
2022/07/29 23:50:21;;;;;;;1.60;1.02;;;20.90;99.90;;;;;;6726024;88;20321;-77
